Terminal Aerodrome Forecast
Issued by NWS

Home | Current Version | Previous Version | Text Only | Print | Product List | Glossary On
Versions: 1 2 3 4 5 6 7 8 9 10 11 12 13 14 15 16 17 18 19 20 21 22 23 24 25 26 27 28
000
FTUS43 KABR 031903 AAA
TAFPIR
TAF AMD
KPIR 031903Z 0319/0418 32015KT P6SM FEW025
     FM032100 36010KT P6SM SCT030
     FM040000 03008KT P6SM BKN250=

USA.gov is the U.S. government's official web portal to all federal, state and local government web resources and services.